sensor_id;sensor_type;location;lat;lon;timestamp;P1;durP1;ratioP1;P2;durP2;ratioP2
36391;SDS011;22639;42.690;23.356;2023-08-08T00:00:31;1.50;;;1.40;;
36391;SDS011;22639;42.690;23.356;2023-08-08T00:02:56;1.70;;;1.35;;
36391;SDS011;22639;42.690;23.356;2023-08-08T00:05:22;1.70;;;1.50;;
36391;SDS011;22639;42.690;23.356;2023-08-08T00:07:47;1.33;;;1.23;;
36391;SDS011;22639;42.690;23.356;2023-08-08T00:10:12;2.05;;;1.50;;
36391;SDS011;22639;42.690;23.356;2023-08-08T00:12:37;1.67;;;1.55;;
36391;SDS011;22639;42.690;23.356;2023-08-08T00:15:03;2.40;;;1.73;;
36391;SDS011;22639;42.690;23.356;2023-08-08T00:17:28;2.13;;;1.60;;
36391;SDS011;22639;42.690;23.356;2023-08-08T00:19:53;2.10;;;1.52;;
36391;SDS011;22639;42.690;23.356;2023-08-08T00:22:19;1.88;;;1.45;;
36391;SDS011;22639;42.690;23.356;2023-08-08T00:24:44;1.63;;;1.52;;
36391;SDS011;22639;42.690;23.356;2023-08-08T00:27:09;1.45;;;1.35;;
36391;SDS011;22639;42.690;23.356;2023-08-08T00:29:34;1.67;;;1.40;;
36391;SDS011;22639;42.690;23.356;2023-08-08T00:32:00;1.52;;;1.42;;
36391;SDS011;22639;42.690;23.356;2023-08-08T00:34:25;1.30;;;1.20;;
36391;SDS011;22639;42.690;23.356;2023-08-08T00:36:50;2.65;;;1.65;;
36391;SDS011;22639;42.690;23.356;2023-08-08T00:39:17;1.42;;;1.30;;
36391;SDS011;22639;42.690;23.356;2023-08-08T00:41:42;1.55;;;1.45;;
36391;SDS011;22639;42.690;23.356;2023-08-08T00:44:08;2.17;;;1.33;;
36391;SDS011;22639;42.690;23.356;2023-08-08T00:46:33;1.70;;;1.60;;
36391;SDS011;22639;42.690;23.356;2023-08-08T00:48:58;1.55;;;1.45;;
36391;SDS011;22639;42.690;23.356;2023-08-08T00:51:24;3.03;;;2.00;;
36391;SDS011;22639;42.690;23.356;2023-08-08T00:53:49;1.75;;;1.65;;
36391;SDS011;22639;42.690;23.356;2023-08-08T00:56:14;2.85;;;2.00;;
36391;SDS011;22639;42.690;23.356;2023-08-08T00:58:42;1.60;;;1.50;;
36391;SDS011;22639;42.690;23.356;2023-08-08T01:01:07;1.70;;;1.60;;
36391;SDS011;22639;42.690;23.356;2023-08-08T01:03:32;2.08;;;1.88;;
36391;SDS011;22639;42.690;23.356;2023-08-08T01:06:05;2.05;;;1.70;;
36391;SDS011;22639;42.690;23.356;2023-08-08T01:08:35;2.15;;;1.92;;
36391;SDS011;22639;42.690;23.356;2023-08-08T01:11:04;1.58;;;1.40;;
36391;SDS011;22639;42.690;23.356;2023-08-08T01:13:30;2.10;;;1.90;;
36391;SDS011;22639;42.690;23.356;2023-08-08T01:15:56;1.58;;;1.48;;
36391;SDS011;22639;42.690;23.356;2023-08-08T01:18:22;1.92;;;1.83;;
36391;SDS011;22639;42.690;23.356;2023-08-08T01:20:48;2.20;;;1.60;;
36391;SDS011;22639;42.690;23.356;2023-08-08T01:23:30;1.92;;;1.75;;
36391;SDS011;22639;42.690;23.356;2023-08-08T01:25:58;2.03;;;1.45;;
36391;SDS011;22639;42.690;23.356;2023-08-08T01:28:24;1.52;;;1.38;;
36391;SDS011;22639;42.690;23.356;2023-08-08T01:30:50;1.98;;;1.27;;
36391;SDS011;22639;42.690;23.356;2023-08-08T01:33:15;1.50;;;1.40;;
36391;SDS011;22639;42.690;23.356;2023-08-08T01:35:42;1.67;;;1.40;;
36391;SDS011;22639;42.690;23.356;2023-08-08T01:38:10;2.58;;;1.50;;
36391;SDS011;22639;42.690;23.356;2023-08-08T01:40:36;1.45;;;1.35;;
36391;SDS011;22639;42.690;23.356;2023-08-08T01:43:03;1.58;;;1.48;;
36391;SDS011;22639;42.690;23.356;2023-08-08T01:45:29;1.73;;;1.40;;
36391;SDS011;22639;42.690;23.356;2023-08-08T01:47:54;2.08;;;1.55;;
36391;SDS011;22639;42.690;23.356;2023-08-08T01:50:19;1.70;;;1.60;;
36391;SDS011;22639;42.690;23.356;2023-08-08T01:52:46;1.60;;;1.30;;
36391;SDS011;22639;42.690;23.356;2023-08-08T01:55:11;3.17;;;1.80;;
36391;SDS011;22639;42.690;23.356;2023-08-08T01:57:37;1.80;;;1.60;;
36391;SDS011;22639;42.690;23.356;2023-08-08T02:00:02;2.78;;;1.75;;
36391;SDS011;22639;42.690;23.356;2023-08-08T02:02:29;2.35;;;1.83;;
36391;SDS011;22639;42.690;23.356;2023-08-08T02:04:54;2.85;;;1.75;;
36391;SDS011;22639;42.690;23.356;2023-08-08T02:07:20;1.80;;;1.65;;
36391;SDS011;22639;42.690;23.356;2023-08-08T02:09:45;1.50;;;1.40;;
36391;SDS011;22639;42.690;23.356;2023-08-08T02:12:11;1.92;;;1.67;;
36391;SDS011;22639;42.690;23.356;2023-08-08T02:14:36;1.65;;;1.55;;
36391;SDS011;22639;42.690;23.356;2023-08-08T02:17:01;1.83;;;1.73;;
36391;SDS011;22639;42.690;23.356;2023-08-08T02:19:26;1.63;;;1.52;;
36391;SDS011;22639;42.690;23.356;2023-08-08T02:21:52;4.35;;;1.83;;
36391;SDS011;22639;42.690;23.356;2023-08-08T02:24:17;2.28;;;2.08;;
36391;SDS011;22639;42.690;23.356;2023-08-08T02:26:42;1.98;;;1.88;;
36391;SDS011;22639;42.690;23.356;2023-08-08T02:29:07;2.13;;;1.92;;
36391;SDS011;22639;42.690;23.356;2023-08-08T02:31:33;2.58;;;2.38;;
36391;SDS011;22639;42.690;23.356;2023-08-08T02:33:58;2.30;;;2.10;;
36391;SDS011;22639;42.690;23.356;2023-08-08T02:36:23;5.30;;;2.00;;
36391;SDS011;22639;42.690;23.356;2023-08-08T02:38:48;2.72;;;2.08;;
36391;SDS011;22639;42.690;23.356;2023-08-08T02:41:18;2.00;;;1.60;;
36391;SDS011;22639;42.690;23.356;2023-08-08T02:43:46;2.50;;;2.10;;
36391;SDS011;22639;42.690;23.356;2023-08-08T02:46:11;1.95;;;1.83;;
36391;SDS011;22639;42.690;23.356;2023-08-08T02:48:37;2.47;;;2.20;;
36391;SDS011;22639;42.690;23.356;2023-08-08T02:51:02;2.65;;;2.45;;
36391;SDS011;22639;42.690;23.356;2023-08-08T02:53:27;2.30;;;2.10;;
36391;SDS011;22639;42.690;23.356;2023-08-08T02:55:52;2.63;;;2.42;;
36391;SDS011;22639;42.690;23.356;2023-08-08T02:58:18;2.58;;;2.38;;
36391;SDS011;22639;42.690;23.356;2023-08-08T03:00:43;2.80;;;2.22;;
36391;SDS011;22639;42.690;23.356;2023-08-08T03:03:08;3.75;;;2.72;;
36391;SDS011;22639;42.690;23.356;2023-08-08T03:05:34;3.03;;;2.83;;
36391;SDS011;22639;42.690;23.356;2023-08-08T03:07:59;3.00;;;2.60;;
36391;SDS011;22639;42.690;23.356;2023-08-08T03:10:25;4.10;;;3.00;;
36391;SDS011;22639;42.690;23.356;2023-08-08T03:12:50;2.90;;;2.67;;
36391;SDS011;22639;42.690;23.356;2023-08-08T03:15:15;2.90;;;2.70;;
36391;SDS011;22639;42.690;23.356;2023-08-08T03:17:40;3.92;;;2.90;;
36391;SDS011;22639;42.690;23.356;2023-08-08T03:20:06;2.88;;;2.67;;
36391;SDS011;22639;42.690;23.356;2023-08-08T03:22:32;2.88;;;2.67;;
36391;SDS011;22639;42.690;23.356;2023-08-08T03:24:57;3.28;;;2.97;;
36391;SDS011;22639;42.690;23.356;2023-08-08T03:27:23;3.13;;;2.83;;
36391;SDS011;22639;42.690;23.356;2023-08-08T03:29:48;4.40;;;2.67;;
36391;SDS011;22639;42.690;23.356;2023-08-08T03:32:14;3.50;;;3.20;;
36391;SDS011;22639;42.690;23.356;2023-08-08T03:34:39;4.68;;;3.55;;
36391;SDS011;22639;42.690;23.356;2023-08-08T03:37:04;3.63;;;3.33;;
36391;SDS011;22639;42.690;23.356;2023-08-08T03:39:30;4.38;;;3.42;;
36391;SDS011;22639;42.690;23.356;2023-08-08T03:41:55;3.78;;;3.45;;
36391;SDS011;22639;42.690;23.356;2023-08-08T03:44:21;3.95;;;3.50;;
36391;SDS011;22639;42.690;23.356;2023-08-08T03:46:46;3.90;;;3.60;;
36391;SDS011;22639;42.690;23.356;2023-08-08T03:49:12;3.92;;;3.63;;
36391;SDS011;22639;42.690;23.356;2023-08-08T03:51:37;6.40;;;4.00;;
36391;SDS011;22639;42.690;23.356;2023-08-08T03:54:03;4.13;;;3.83;;
36391;SDS011;22639;42.690;23.356;2023-08-08T03:56:28;3.38;;;3.17;;
36391;SDS011;22639;42.690;23.356;2023-08-08T03:58:54;4.10;;;3.75;;
36391;SDS011;22639;42.690;23.356;2023-08-08T04:01:19;4.30;;;3.90;;
36391;SDS011;22639;42.690;23.356;2023-08-08T04:03:44;4.05;;;3.75;;
36391;SDS011;22639;42.690;23.356;2023-08-08T04:06:09;4.82;;;4.38;;
36391;SDS011;22639;42.690;23.356;2023-08-08T04:08:37;4.80;;;4.40;;
36391;SDS011;22639;42.690;23.356;2023-08-08T04:11:02;4.00;;;3.63;;
36391;SDS011;22639;42.690;23.356;2023-08-08T04:13:27;5.43;;;4.07;;
36391;SDS011;22639;42.690;23.356;2023-08-08T04:15:53;4.55;;;4.15;;
36391;SDS011;22639;42.690;23.356;2023-08-08T04:18:18;4.60;;;4.20;;
36391;SDS011;22639;42.690;23.356;2023-08-08T04:20:45;4.55;;;4.15;;
36391;SDS011;22639;42.690;23.356;2023-08-08T04:23:10;4.65;;;4.25;;
36391;SDS011;22639;42.690;23.356;2023-08-08T04:25:36;5.00;;;4.60;;
36391;SDS011;22639;42.690;23.356;2023-08-08T04:28:01;5.60;;;5.10;;
36391;SDS011;22639;42.690;23.356;2023-08-08T04:30:26;5.40;;;4.82;;
36391;SDS011;22639;42.690;23.356;2023-08-08T04:32:51;5.57;;;5.07;;
36391;SDS011;22639;42.690;23.356;2023-08-08T04:35:17;5.25;;;4.78;;
36391;SDS011;22639;42.690;23.356;2023-08-08T04:37:42;5.00;;;4.60;;
36391;SDS011;22639;42.690;23.356;2023-08-08T04:40:08;4.88;;;4.50;;
36391;SDS011;22639;42.690;23.356;2023-08-08T04:42:33;5.75;;;5.28;;
36391;SDS011;22639;42.690;23.356;2023-08-08T04:44:59;6.03;;;5.43;;
36391;SDS011;22639;42.690;23.356;2023-08-08T04:47:24;5.15;;;4.75;;
36391;SDS011;22639;42.690;23.356;2023-08-08T04:49:49;4.78;;;4.38;;
36391;SDS011;22639;42.690;23.356;2023-08-08T04:52:15;5.25;;;4.85;;
36391;SDS011;22639;42.690;23.356;2023-08-08T04:54:40;5.60;;;5.10;;
36391;SDS011;22639;42.690;23.356;2023-08-08T04:57:12;4.95;;;4.55;;
36391;SDS011;22639;42.690;23.356;2023-08-08T04:59:38;5.53;;;5.00;;
36391;SDS011;22639;42.690;23.356;2023-08-08T05:02:04;4.78;;;4.47;;
36391;SDS011;22639;42.690;23.356;2023-08-08T05:04:30;5.15;;;4.65;;
36391;SDS011;22639;42.690;23.356;2023-08-08T05:06:56;5.32;;;4.63;;
36391;SDS011;22639;42.690;23.356;2023-08-08T05:09:22;4.75;;;4.40;;
36391;SDS011;22639;42.690;23.356;2023-08-08T05:11:54;4.80;;;4.40;;
36391;SDS011;22639;42.690;23.356;2023-08-08T05:14:19;6.07;;;4.22;;
36391;SDS011;22639;42.690;23.356;2023-08-08T05:16:45;4.75;;;4.35;;
36391;SDS011;22639;42.690;23.356;2023-08-08T05:19:10;4.30;;;3.90;;
36391;SDS011;22639;42.690;23.356;2023-08-08T05:21:36;3.50;;;3.20;;
36391;SDS011;22639;42.690;23.356;2023-08-08T05:24:02;4.20;;;3.80;;
36391;SDS011;22639;42.690;23.356;2023-08-08T05:26:28;3.67;;;3.38;;
36391;SDS011;22639;42.690;23.356;2023-08-08T05:28:53;3.63;;;3.33;;
36391;SDS011;22639;42.690;23.356;2023-08-08T05:31:18;3.17;;;2.97;;
36391;SDS011;22639;42.690;23.356;2023-08-08T05:33:44;3.10;;;2.90;;
36391;SDS011;22639;42.690;23.356;2023-08-08T05:36:09;3.05;;;2.85;;
36391;SDS011;22639;42.690;23.356;2023-08-08T05:38:34;3.00;;;2.78;;
36391;SDS011;22639;42.690;23.356;2023-08-08T05:40:59;3.28;;;2.60;;
36391;SDS011;22639;42.690;23.356;2023-08-08T05:43:25;3.78;;;3.38;;
36391;SDS011;22639;42.690;23.356;2023-08-08T05:45:52;3.13;;;2.75;;
36391;SDS011;22639;42.690;23.356;2023-08-08T05:48:18;3.70;;;2.47;;
36391;SDS011;22639;42.690;23.356;2023-08-08T05:50:43;2.60;;;2.40;;
36391;SDS011;22639;42.690;23.356;2023-08-08T05:53:08;3.20;;;2.70;;
36391;SDS011;22639;42.690;23.356;2023-08-08T05:55:33;2.45;;;2.25;;
36391;SDS011;22639;42.690;23.356;2023-08-08T05:57:59;2.50;;;2.30;;
36391;SDS011;22639;42.690;23.356;2023-08-08T06:00:24;2.30;;;2.10;;
36391;SDS011;22639;42.690;23.356;2023-08-08T06:02:49;2.40;;;2.20;;
36391;SDS011;22639;42.690;23.356;2023-08-08T06:05:16;2.53;;;2.30;;
36391;SDS011;22639;42.690;23.356;2023-08-08T06:07:41;6.20;;;2.28;;
36391;SDS011;22639;42.690;23.356;2023-08-08T06:10:06;2.85;;;2.30;;
36391;SDS011;22639;42.690;23.356;2023-08-08T06:12:33;2.75;;;2.50;;
36391;SDS011;22639;42.690;23.356;2023-08-08T06:14:58;3.65;;;3.00;;
36391;SDS011;22639;42.690;23.356;2023-08-08T06:17:24;5.78;;;2.60;;
36391;SDS011;22639;42.690;23.356;2023-08-08T06:19:49;3.67;;;3.38;;
36391;SDS011;22639;42.690;23.356;2023-08-08T06:22:15;3.35;;;3.10;;
36391;SDS011;22639;42.690;23.356;2023-08-08T06:24:40;3.55;;;3.25;;
36391;SDS011;22639;42.690;23.356;2023-08-08T06:27:06;3.30;;;3.10;;
36391;SDS011;22639;42.690;23.356;2023-08-08T06:29:31;3.28;;;2.97;;
36391;SDS011;22639;42.690;23.356;2023-08-08T06:31:58;2.88;;;2.67;;
36391;SDS011;22639;42.690;23.356;2023-08-08T06:34:23;2.70;;;2.42;;
36391;SDS011;22639;42.690;23.356;2023-08-08T06:36:48;3.75;;;2.50;;
36391;SDS011;22639;42.690;23.356;2023-08-08T06:39:14;2.42;;;2.20;;
36391;SDS011;22639;42.690;23.356;2023-08-08T06:41:39;5.70;;;2.80;;
36391;SDS011;22639;42.690;23.356;2023-08-08T06:44:06;2.50;;;2.30;;
36391;SDS011;22639;42.690;23.356;2023-08-08T06:46:32;4.22;;;2.60;;
36391;SDS011;22639;42.690;23.356;2023-08-08T06:48:57;2.83;;;2.63;;
36391;SDS011;22639;42.690;23.356;2023-08-08T06:51:24;4.70;;;3.03;;
36391;SDS011;22639;42.690;23.356;2023-08-08T06:53:50;3.15;;;2.80;;
36391;SDS011;22639;42.690;23.356;2023-08-08T06:56:15;2.70;;;2.50;;
36391;SDS011;22639;42.690;23.356;2023-08-08T06:58:40;2.67;;;2.42;;
36391;SDS011;22639;42.690;23.356;2023-08-08T07:01:06;2.47;;;2.28;;
36391;SDS011;22639;42.690;23.356;2023-08-08T07:03:35;2.13;;;2.03;;
36391;SDS011;22639;42.690;23.356;2023-08-08T07:06:00;2.53;;;1.92;;
36391;SDS011;22639;42.690;23.356;2023-08-08T07:08:26;3.08;;;1.80;;
36391;SDS011;22639;42.690;23.356;2023-08-08T07:10:52;2.28;;;2.08;;
36391;SDS011;22639;42.690;23.356;2023-08-08T07:13:18;2.60;;;2.13;;
36391;SDS011;22639;42.690;23.356;2023-08-08T07:15:43;2.58;;;2.38;;
36391;SDS011;22639;42.690;23.356;2023-08-08T07:18:08;3.95;;;1.92;;
36391;SDS011;22639;42.690;23.356;2023-08-08T07:20:34;1.75;;;1.65;;
36391;SDS011;22639;42.690;23.356;2023-08-08T07:23:18;2.47;;;1.88;;
36391;SDS011;22639;42.690;23.356;2023-08-08T07:25:43;2.50;;;2.40;;
36391;SDS011;22639;42.690;23.356;2023-08-08T07:28:08;2.75;;;2.10;;
36391;SDS011;22639;42.690;23.356;2023-08-08T07:30:34;2.10;;;2.00;;
36391;SDS011;22639;42.690;23.356;2023-08-08T07:32:59;1.50;;;1.40;;
36391;SDS011;22639;42.690;23.356;2023-08-08T07:35:25;3.47;;;2.33;;
36391;SDS011;22639;42.690;23.356;2023-08-08T07:37:50;3.45;;;2.28;;
36391;SDS011;22639;42.690;23.356;2023-08-08T07:40:19;2.10;;;1.83;;
36391;SDS011;22639;42.690;23.356;2023-08-08T07:42:48;2.40;;;1.60;;
36391;SDS011;22639;42.690;23.356;2023-08-08T07:45:13;2.80;;;1.30;;
36391;SDS011;22639;42.690;23.356;2023-08-08T07:47:39;1.70;;;1.60;;
36391;SDS011;22639;42.690;23.356;2023-08-08T07:50:04;2.00;;;1.20;;
36391;SDS011;22639;42.690;23.356;2023-08-08T07:52:31;1.45;;;1.35;;
36391;SDS011;22639;42.690;23.356;2023-08-08T07:54:57;1.70;;;1.60;;
36391;SDS011;22639;42.690;23.356;2023-08-08T07:57:22;2.03;;;1.70;;
36391;SDS011;22639;42.690;23.356;2023-08-08T07:59:47;2.83;;;1.55;;
36391;SDS011;22639;42.690;23.356;2023-08-08T08:02:13;1.63;;;1.52;;
36391;SDS011;22639;42.690;23.356;2023-08-08T08:04:38;3.08;;;1.50;;
36391;SDS011;22639;42.690;23.356;2023-08-08T08:07:03;4.65;;;1.48;;
36391;SDS011;22639;42.690;23.356;2023-08-08T08:09:29;5.43;;;1.80;;
36391;SDS011;22639;42.690;23.356;2023-08-08T08:11:54;2.60;;;1.48;;
36391;SDS011;22639;42.690;23.356;2023-08-08T08:14:20;2.15;;;1.55;;
36391;SDS011;22639;42.690;23.356;2023-08-08T08:16:46;1.70;;;1.60;;
36391;SDS011;22639;42.690;23.356;2023-08-08T08:19:11;1.30;;;1.15;;
36391;SDS011;22639;42.690;23.356;2023-08-08T08:21:36;2.85;;;1.15;;
36391;SDS011;22639;42.690;23.356;2023-08-08T08:24:02;1.45;;;1.30;;
36391;SDS011;22639;42.690;23.356;2023-08-08T08:26:27;1.20;;;1.10;;
36391;SDS011;22639;42.690;23.356;2023-08-08T08:28:53;1.10;;;1.08;;
36391;SDS011;22639;42.690;23.356;2023-08-08T08:31:27;1.20;;;1.10;;
36391;SDS011;22639;42.690;23.356;2023-08-08T08:33:54;1.52;;;1.42;;
36391;SDS011;22639;42.690;23.356;2023-08-08T08:36:20;1.63;;;1.52;;
36391;SDS011;22639;42.690;23.356;2023-08-08T08:38:46;1.90;;;1.10;;
36391;SDS011;22639;42.690;23.356;2023-08-08T08:41:12;2.25;;;1.13;;
36391;SDS011;22639;42.690;23.356;2023-08-08T08:43:40;1.50;;;1.40;;
36391;SDS011;22639;42.690;23.356;2023-08-08T08:46:05;1.70;;;1.60;;
36391;SDS011;22639;42.690;23.356;2023-08-08T08:48:30;3.28;;;1.60;;
36391;SDS011;22639;42.690;23.356;2023-08-08T08:50:56;2.83;;;1.38;;
36391;SDS011;22639;42.690;23.356;2023-08-08T08:53:22;2.03;;;1.65;;
36391;SDS011;22639;42.690;23.356;2023-08-08T08:55:52;2.08;;;1.80;;
36391;SDS011;22639;42.690;23.356;2023-08-08T08:58:24;1.65;;;1.55;;
36391;SDS011;22639;42.690;23.356;2023-08-08T09:00:57;2.10;;;1.90;;
36391;SDS011;22639;42.690;23.356;2023-08-08T09:03:23;1.83;;;1.73;;
36391;SDS011;22639;42.690;23.356;2023-08-08T09:05:48;3.72;;;1.90;;
36391;SDS011;22639;42.690;23.356;2023-08-08T09:08:14;2.00;;;1.90;;
36391;SDS011;22639;42.690;23.356;2023-08-08T09:10:40;3.35;;;1.50;;
36391;SDS011;22639;42.690;23.356;2023-08-08T09:13:05;1.85;;;1.75;;
36391;SDS011;22639;42.690;23.356;2023-08-08T09:15:31;1.23;;;1.20;;
36391;SDS011;22639;42.690;23.356;2023-08-08T09:17:57;1.88;;;1.40;;
36391;SDS011;22639;42.690;23.356;2023-08-08T09:20:22;4.22;;;1.83;;
36391;SDS011;22639;42.690;23.356;2023-08-08T09:22:47;3.33;;;1.30;;
36391;SDS011;22639;42.690;23.356;2023-08-08T09:25:13;2.53;;;1.30;;
36391;SDS011;22639;42.690;23.356;2023-08-08T09:27:40;5.15;;;1.55;;
36391;SDS011;22639;42.690;23.356;2023-08-08T09:30:05;2.20;;;1.70;;
36391;SDS011;22639;42.690;23.356;2023-08-08T09:32:31;1.35;;;1.25;;
36391;SDS011;22639;42.690;23.356;2023-08-08T09:34:57;2.58;;;1.75;;
36391;SDS011;22639;42.690;23.356;2023-08-08T09:37:22;1.98;;;1.60;;
36391;SDS011;22639;42.690;23.356;2023-08-08T09:39:55;1.70;;;1.60;;
36391;SDS011;22639;42.690;23.356;2023-08-08T09:42:20;3.17;;;1.67;;
36391;SDS011;22639;42.690;23.356;2023-08-08T09:44:46;1.52;;;1.42;;
36391;SDS011;22639;42.690;23.356;2023-08-08T09:47:12;1.85;;;1.75;;
36391;SDS011;22639;42.690;23.356;2023-08-08T09:49:37;1.60;;;1.50;;
36391;SDS011;22639;42.690;23.356;2023-08-08T09:52:03;1.73;;;1.63;;
36391;SDS011;22639;42.690;23.356;2023-08-08T09:54:29;2.03;;;1.92;;
36391;SDS011;22639;42.690;23.356;2023-08-08T09:56:54;2.10;;;1.83;;
36391;SDS011;22639;42.690;23.356;2023-08-08T09:59:20;1.90;;;1.80;;
36391;SDS011;22639;42.690;23.356;2023-08-08T10:01:46;1.90;;;1.80;;
36391;SDS011;22639;42.690;23.356;2023-08-08T10:04:13;1.80;;;1.70;;
36391;SDS011;22639;42.690;23.356;2023-08-08T10:06:38;2.47;;;1.85;;
36391;SDS011;22639;42.690;23.356;2023-08-08T10:09:03;2.67;;;1.92;;
36391;SDS011;22639;42.690;23.356;2023-08-08T10:11:29;3.80;;;2.00;;
36391;SDS011;22639;42.690;23.356;2023-08-08T10:13:55;3.25;;;2.45;;
36391;SDS011;22639;42.690;23.356;2023-08-08T10:16:21;2.30;;;2.20;;
36391;SDS011;22639;42.690;23.356;2023-08-08T10:18:54;2.05;;;1.95;;
36391;SDS011;22639;42.690;23.356;2023-08-08T10:21:22;2.13;;;2.00;;
36391;SDS011;22639;42.690;23.356;2023-08-08T10:23:48;2.08;;;1.98;;
36391;SDS011;22639;42.690;23.356;2023-08-08T10:26:19;2.45;;;2.25;;
36391;SDS011;22639;42.690;23.356;2023-08-08T10:28:57;3.20;;;1.80;;
36391;SDS011;22639;42.690;23.356;2023-08-08T10:31:23;4.93;;;2.05;;
36391;SDS011;22639;42.690;23.356;2023-08-08T10:33:48;4.57;;;1.95;;
36391;SDS011;22639;42.690;23.356;2023-08-08T10:36:14;2.28;;;2.08;;
36391;SDS011;22639;42.690;23.356;2023-08-08T10:38:44;2.38;;;2.17;;
36391;SDS011;22639;42.690;23.356;2023-08-08T10:41:12;1.98;;;1.88;;
36391;SDS011;22639;42.690;23.356;2023-08-08T10:43:37;1.90;;;1.80;;
36391;SDS011;22639;42.690;23.356;2023-08-08T10:46:03;2.30;;;1.88;;
36391;SDS011;22639;42.690;23.356;2023-08-08T10:48:29;1.73;;;1.63;;
36391;SDS011;22639;42.690;23.356;2023-08-08T10:50:57;1.60;;;1.50;;
36391;SDS011;22639;42.690;23.356;2023-08-08T10:53:24;2.83;;;1.83;;
36391;SDS011;22639;42.690;23.356;2023-08-08T10:55:57;2.00;;;1.90;;
36391;SDS011;22639;42.690;23.356;2023-08-08T10:58:22;3.10;;;1.95;;
36391;SDS011;22639;42.690;23.356;2023-08-08T11:00:50;1.48;;;1.38;;
36391;SDS011;22639;42.690;23.356;2023-08-08T11:03:17;2.10;;;1.60;;
36391;SDS011;22639;42.690;23.356;2023-08-08T11:05:42;2.78;;;1.85;;
36391;SDS011;22639;42.690;23.356;2023-08-08T11:08:12;2.53;;;1.73;;
36391;SDS011;22639;42.690;23.356;2023-08-08T11:10:39;2.17;;;1.75;;
36391;SDS011;22639;42.690;23.356;2023-08-08T11:13:05;1.60;;;1.50;;
36391;SDS011;22639;42.690;23.356;2023-08-08T11:15:34;3.72;;;1.70;;
36391;SDS011;22639;42.690;23.356;2023-08-08T11:18:00;1.80;;;1.70;;
36391;SDS011;22639;42.690;23.356;2023-08-08T11:20:34;1.70;;;1.60;;
36391;SDS011;22639;42.690;23.356;2023-08-08T11:23:00;1.80;;;1.70;;
36391;SDS011;22639;42.690;23.356;2023-08-08T11:25:26;1.80;;;1.70;;
36391;SDS011;22639;42.690;23.356;2023-08-08T11:27:52;2.05;;;1.88;;
36391;SDS011;22639;42.690;23.356;2023-08-08T11:30:18;1.50;;;1.40;;
36391;SDS011;22639;42.690;23.356;2023-08-08T11:32:48;1.85;;;1.65;;
36391;SDS011;22639;42.690;23.356;2023-08-08T11:35:18;1.50;;;1.40;;
36391;SDS011;22639;42.690;23.356;2023-08-08T11:37:46;1.75;;;1.65;;
36391;SDS011;22639;42.690;23.356;2023-08-08T11:40:12;1.83;;;1.73;;
36391;SDS011;22639;42.690;23.356;2023-08-08T11:42:37;1.67;;;1.58;;
36391;SDS011;22639;42.690;23.356;2023-08-08T11:45:03;1.90;;;1.80;;
36391;SDS011;22639;42.690;23.356;2023-08-08T11:47:29;1.77;;;1.67;;
36391;SDS011;22639;42.690;23.356;2023-08-08T11:50:00;2.58;;;2.38;;
36391;SDS011;22639;42.690;23.356;2023-08-08T11:52:25;2.97;;;1.90;;
36391;SDS011;22639;42.690;23.356;2023-08-08T11:54:51;1.98;;;1.88;;
36391;SDS011;22639;42.690;23.356;2023-08-08T11:57:17;2.03;;;1.92;;
36391;SDS011;22639;42.690;23.356;2023-08-08T11:59:42;1.95;;;1.85;;
36391;SDS011;22639;42.690;23.356;2023-08-08T12:02:09;2.08;;;1.98;;
36391;SDS011;22639;42.690;23.356;2023-08-08T12:04:34;4.90;;;2.10;;
36391;SDS011;22639;42.690;23.356;2023-08-08T12:07:00;2.03;;;1.92;;
36391;SDS011;22639;42.690;23.356;2023-08-08T12:09:32;2.47;;;2.38;;
36391;SDS011;22639;42.690;23.356;2023-08-08T12:12:01;2.80;;;1.70;;
36391;SDS011;22639;42.690;23.356;2023-08-08T12:14:27;2.22;;;1.63;;
36391;SDS011;22639;42.690;23.356;2023-08-08T12:16:53;1.88;;;1.77;;
36391;SDS011;22639;42.690;23.356;2023-08-08T12:19:22;3.15;;;1.90;;
36391;SDS011;22639;42.690;23.356;2023-08-08T12:21:47;1.80;;;1.70;;
36391;SDS011;22639;42.690;23.356;2023-08-08T12:24:12;1.90;;;1.80;;
36391;SDS011;22639;42.690;23.356;2023-08-08T12:26:37;3.30;;;1.88;;
36391;SDS011;22639;42.690;23.356;2023-08-08T12:29:03;1.90;;;1.80;;
36391;SDS011;22639;42.690;23.356;2023-08-08T12:31:29;1.90;;;1.80;;
36391;SDS011;22639;42.690;23.356;2023-08-08T12:33:55;1.77;;;1.67;;
36391;SDS011;22639;42.690;23.356;2023-08-08T12:36:20;3.90;;;1.80;;
36391;SDS011;22639;42.690;23.356;2023-08-08T12:38:45;1.80;;;1.70;;
36391;SDS011;22639;42.690;23.356;2023-08-08T12:41:11;1.63;;;1.52;;
36391;SDS011;22639;42.690;23.356;2023-08-08T12:43:37;1.67;;;1.58;;
36391;SDS011;22639;42.690;23.356;2023-08-08T12:46:03;1.90;;;1.80;;
36391;SDS011;22639;42.690;23.356;2023-08-08T12:48:28;1.80;;;1.70;;
36391;SDS011;22639;42.690;23.356;2023-08-08T12:50:53;1.83;;;1.73;;
36391;SDS011;22639;42.690;23.356;2023-08-08T12:53:21;2.17;;;1.75;;
36391;SDS011;22639;42.690;23.356;2023-08-08T12:55:46;2.20;;;2.00;;
36391;SDS011;22639;42.690;23.356;2023-08-08T12:58:12;4.75;;;1.70;;
36391;SDS011;22639;42.690;23.356;2023-08-08T13:00:37;2.85;;;1.88;;
36391;SDS011;22639;42.690;23.356;2023-08-08T13:03:02;2.25;;;2.05;;
36391;SDS011;22639;42.690;23.356;2023-08-08T13:05:28;2.30;;;1.70;;
36391;SDS011;22639;42.690;23.356;2023-08-08T13:07:53;1.83;;;1.73;;
36391;SDS011;22639;42.690;23.356;2023-08-08T13:10:19;2.88;;;1.67;;
36391;SDS011;22639;42.690;23.356;2023-08-08T13:12:45;1.90;;;1.80;;
36391;SDS011;22639;42.690;23.356;2023-08-08T13:15:10;1.92;;;1.83;;
36391;SDS011;22639;42.690;23.356;2023-08-08T13:17:35;1.50;;;1.40;;
36391;SDS011;22639;42.690;23.356;2023-08-08T13:20:01;2.47;;;1.60;;
36391;SDS011;22639;42.690;23.356;2023-08-08T13:22:26;2.95;;;1.83;;
36391;SDS011;22639;42.690;23.356;2023-08-08T13:24:54;1.70;;;1.60;;
36391;SDS011;22639;42.690;23.356;2023-08-08T13:27:19;2.00;;;1.90;;
36391;SDS011;22639;42.690;23.356;2023-08-08T13:29:44;1.60;;;1.45;;
36391;SDS011;22639;42.690;23.356;2023-08-08T13:32:10;2.17;;;2.03;;
36391;SDS011;22639;42.690;23.356;2023-08-08T13:34:35;3.75;;;1.92;;
36391;SDS011;22639;42.690;23.356;2023-08-08T13:37:00;2.38;;;1.92;;
36391;SDS011;22639;42.690;23.356;2023-08-08T13:39:25;3.10;;;2.00;;
36391;SDS011;22639;42.690;23.356;2023-08-08T13:41:51;2.22;;;2.10;;
36391;SDS011;22639;42.690;23.356;2023-08-08T13:44:16;1.90;;;1.80;;
36391;SDS011;22639;42.690;23.356;2023-08-08T13:46:41;2.00;;;1.83;;
36391;SDS011;22639;42.690;23.356;2023-08-08T13:49:09;2.15;;;2.05;;
36391;SDS011;22639;42.690;23.356;2023-08-08T13:51:35;1.88;;;1.77;;
36391;SDS011;22639;42.690;23.356;2023-08-08T13:54:01;2.38;;;2.17;;
36391;SDS011;22639;42.690;23.356;2023-08-08T13:56:26;4.53;;;1.98;;
36391;SDS011;22639;42.690;23.356;2023-08-08T13:58:51;2.40;;;2.20;;
36391;SDS011;22639;42.690;23.356;2023-08-08T14:01:16;2.42;;;2.22;;
36391;SDS011;22639;42.690;23.356;2023-08-08T14:03:42;3.13;;;2.10;;
36391;SDS011;22639;42.690;23.356;2023-08-08T14:06:07;2.33;;;2.20;;
36391;SDS011;22639;42.690;23.356;2023-08-08T14:08:33;1.88;;;1.77;;
36391;SDS011;22639;42.690;23.356;2023-08-08T14:10:58;3.20;;;1.70;;
36391;SDS011;22639;42.690;23.356;2023-08-08T14:13:23;3.10;;;2.35;;
36391;SDS011;22639;42.690;23.356;2023-08-08T14:15:49;1.60;;;1.50;;
36391;SDS011;22639;42.690;23.356;2023-08-08T14:18:14;2.60;;;2.40;;
36391;SDS011;22639;42.690;23.356;2023-08-08T14:20:42;2.58;;;2.17;;
36391;SDS011;22639;42.690;23.356;2023-08-08T14:23:07;1.98;;;1.88;;
36391;SDS011;22639;42.690;23.356;2023-08-08T14:25:32;2.30;;;2.00;;